Time;durP1;ratioP1;P1;durP2;ratioP2;P2;SDS_P1;SDS_P2;PMS_P1;PMS_P2;Temp;Humidity;BMP_temperature;BMP_pressure;BME280_temperature;BME280_humidity;BME280_pressure;Samples;Min_cycle;Max_cycle;Signal;HPM_P1;HPM_P2
2021/05/07 00:00:26;;;;;;;4.05;3.40;;;8.30;99.90;;;;;;4961659;28;20219;-72
2021/05/07 00:05:56;;;;;;;4.47;2.63;;;8.30;99.90;;;;;;4973699;28;20568;-73
2021/05/07 00:08:26;;;;;;;6.43;4.63;;;8.40;99.90;;;;;;4986361;23;20231;-67
2021/05/07 00:10:53;;;;;;;5.28;3.47;;;8.50;99.90;;;;;;4953651;29;20209;-67
2021/05/07 00:13:19;;;;;;;4.30;3.13;;;8.50;99.90;;;;;;4953073;29;20202;-67
2021/05/07 00:15:46;;;;;;;6.13;3.20;;;8.50;99.90;;;;;;4955042;28;20218;-67
2021/05/07 00:18:13;;;;;;;4.13;3.00;;;8.50;99.90;;;;;;4955541;28;20225;-67
2021/05/07 00:20:40;;;;;;;5.90;2.45;;;8.50;99.90;;;;;;4955634;29;20213;-67
2021/05/07 00:23:06;;;;;;;5.68;3.53;;;8.40;99.90;;;;;;4956337;28;20202;-66
2021/05/07 00:25:33;;;;;;;3.13;2.40;;;8.40;99.90;;;;;;4955590;28;20213;-66
2021/05/07 00:28:01;;;;;;;5.75;3.53;;;8.40;99.90;;;;;;4959335;28;20299;-68
2021/05/07 00:30:28;;;;;;;9.27;3.78;;;8.30;99.90;;;;;;4955344;28;20243;-66
2021/05/07 00:32:56;;;;;;;7.55;4.28;;;8.20;99.90;;;;;;4954799;28;20242;-67
2021/05/07 00:35:23;;;;;;;5.25;3.58;;;8.20;99.90;;;;;;4947734;29;20229;-66
2021/05/07 00:37:49;;;;;;;8.38;4.53;;;8.00;99.90;;;;;;4956297;28;20224;-67
2021/05/07 00:40:17;;;;;;;5.05;3.58;;;8.00;99.90;;;;;;4947762;29;20205;-66
2021/05/07 00:42:43;;;;;;;7.70;4.45;;;8.00;99.90;;;;;;4956331;28;20203;-67
2021/05/07 00:45:12;;;;;;;6.28;3.90;;;8.00;99.90;;;;;;4959127;28;20226;-67
2021/05/07 00:47:44;;;;;;;7.07;4.78;;;8.00;99.90;;;;;;4961050;28;20228;-67
2021/05/07 00:50:12;;;;;;;5.07;4.57;;;7.90;99.90;;;;;;4956141;28;20219;-67
2021/05/07 00:52:39;;;;;;;9.82;4.65;;;7.90;99.90;;;;;;4955753;29;20672;-67
2021/05/07 00:55:07;;;;;;;5.03;4.10;;;7.90;99.90;;;;;;4962734;28;20223;-68
2021/05/07 00:57:35;;;;;;;9.38;4.88;;;7.90;99.90;;;;;;4956591;28;20229;-67
2021/05/07 01:00:01;;;;;;;4.70;4.20;;;7.80;99.90;;;;;;4950677;28;20275;-67
2021/05/07 01:02:28;;;;;;;7.15;4.75;;;7.80;99.90;;;;;;4956046;28;20203;-68
2021/05/07 01:04:54;;;;;;;12.95;6.05;;;7.80;99.90;;;;;;4956108;28;20661;-66
2021/05/07 01:07:22;;;;;;;5.30;4.45;;;7.70;99.90;;;;;;4955950;28;20237;-66
2021/05/07 01:09:50;;;;;;;6.70;5.53;;;7.60;99.90;;;;;;4955391;28;20271;-67
2021/05/07 01:12:17;;;;;;;8.70;4.63;;;7.60;99.90;;;;;;4956379;29;20204;-67
2021/05/07 01:14:44;;;;;;;5.93;5.00;;;7.60;99.90;;;;;;4955388;28;20230;-67
2021/05/07 01:17:11;;;;;;;7.10;5.32;;;7.60;99.90;;;;;;4956476;28;21021;-67
2021/05/07 01:19:52;;;;;;;7.55;5.57;;;7.50;99.90;;;;;;4957427;28;20207;-67
2021/05/07 01:22:20;;;;;;;6.95;6.13;;;7.50;99.90;;;;;;4951279;28;20202;-66
2021/05/07 01:24:47;;;;;;;7.32;6.05;;;7.50;99.90;;;;;;4961682;28;20202;-67
2021/05/07 01:27:14;;;;;;;9.75;6.35;;;7.50;99.90;;;;;;4957585;28;20244;-67
2021/05/07 01:29:40;;;;;;;10.23;6.07;;;7.50;99.90;;;;;;4964894;28;20223;-66
2021/05/07 01:32:07;;;;;;;7.70;6.53;;;7.50;99.90;;;;;;4956061;29;20201;-67
2021/05/07 01:34:34;;;;;;;8.25;7.32;;;7.40;99.90;;;;;;4954881;29;20282;-66
2021/05/07 01:37:00;;;;;;;9.05;7.00;;;7.30;99.90;;;;;;4956132;28;20365;-66
2021/05/07 01:39:28;;;;;;;11.23;8.00;;;7.20;99.90;;;;;;4950990;28;20207;-66
2021/05/07 01:41:54;;;;;;;9.95;8.63;;;7.10;99.90;;;;;;4955607;29;20263;-66
2021/05/07 01:44:21;;;;;;;9.43;8.25;;;7.00;99.90;;;;;;4949799;28;20203;-66
2021/05/07 01:46:47;;;;;;;16.00;9.10;;;6.90;99.90;;;;;;4952128;28;20207;-66
2021/05/07 01:49:14;;;;;;;11.55;9.27;;;6.80;99.90;;;;;;4954494;28;20207;-65
2021/05/07 01:51:40;;;;;;;11.70;9.57;;;6.80;99.90;;;;;;4952468;29;20207;-66
2021/05/07 01:54:07;;;;;;;9.35;8.20;;;6.70;99.90;;;;;;4956384;28;20207;-67
2021/05/07 01:56:34;;;;;;;12.57;8.85;;;6.70;99.90;;;;;;4962473;28;20768;-66
2021/05/07 01:59:01;;;;;;;12.63;8.23;;;6.80;99.90;;;;;;4954824;28;20229;-67
2021/05/07 02:01:27;;;;;;;9.90;8.80;;;6.80;99.90;;;;;;4955890;29;20210;-66
2021/05/07 02:03:54;;;;;;;10.77;8.55;;;6.80;99.90;;;;;;4956034;29;20203;-67
2021/05/07 02:06:20;;;;;;;14.90;8.75;;;6.80;99.90;;;;;;4955012;28;20697;-66
2021/05/07 02:08:47;;;;;;;16.25;7.47;;;6.90;99.90;;;;;;4955115;28;20234;-66
2021/05/07 02:11:13;;;;;;;13.30;7.53;;;6.90;99.90;;;;;;4949686;29;20236;-66
2021/05/07 02:13:41;;;;;;;10.45;7.93;;;6.80;99.90;;;;;;4955524;28;20204;-66
2021/05/07 02:16:09;;;;;;;8.90;8.02;;;6.90;99.90;;;;;;4956842;28;20667;-66
2021/05/07 02:18:36;;;;;;;8.95;7.95;;;6.90;99.90;;;;;;4961107;28;20728;-66
2021/05/07 02:21:02;;;;;;;13.93;7.75;;;6.90;99.90;;;;;;4956385;28;20500;-66
2021/05/07 02:23:29;;;;;;;7.85;7.03;;;7.00;99.90;;;;;;4956471;29;20582;-66
2021/05/07 02:25:57;;;;;;;11.07;7.97;;;7.00;99.90;;;;;;4954054;28;20203;-66
2021/05/07 02:28:23;;;;;;;10.05;8.10;;;7.00;99.90;;;;;;4950882;28;20286;-66
2021/05/07 02:30:51;;;;;;;9.77;7.60;;;6.90;99.90;;;;;;4956557;28;20204;-66
2021/05/07 02:33:17;;;;;;;9.38;7.32;;;6.90;99.90;;;;;;4954489;28;20207;-66
2021/05/07 02:35:44;;;;;;;10.68;7.20;;;6.90;99.90;;;;;;4945768;28;20251;-66
2021/05/07 02:38:10;;;;;;;9.00;7.35;;;6.90;99.90;;;;;;4957913;28;20227;-66
2021/05/07 02:40:37;;;;;;;9.77;6.95;;;6.90;99.90;;;;;;4959403;28;20198;-65
2021/05/07 02:43:03;;;;;;;8.15;7.00;;;6.90;99.90;;;;;;4954328;28;20656;-67
2021/05/07 02:45:30;;;;;;;6.35;5.32;;;6.90;99.90;;;;;;4963821;28;20198;-67
2021/05/07 02:47:57;;;;;;;8.23;7.38;;;6.90;99.90;;;;;;4956644;28;20226;-68
2021/05/07 02:50:24;;;;;;;6.80;6.15;;;6.90;99.90;;;;;;4959470;28;20214;-65
2021/05/07 02:52:50;;;;;;;9.00;6.35;;;6.90;99.90;;;;;;4963112;28;20281;-67
2021/05/07 02:55:17;;;;;;;7.55;6.03;;;6.90;99.90;;;;;;4958866;28;20223;-68
2021/05/07 02:57:43;;;;;;;7.10;5.40;;;6.90;99.90;;;;;;4948516;29;20240;-66
2021/05/07 03:00:11;;;;;;;6.97;5.88;;;7.00;99.90;;;;;;4957063;28;20224;-67
2021/05/07 03:02:37;;;;;;;6.03;5.53;;;6.90;99.90;;;;;;4948195;29;20203;-67
2021/05/07 03:05:06;;;;;;;6.88;6.20;;;7.00;99.90;;;;;;4954009;29;20620;-67
2021/05/07 03:07:32;;;;;;;7.35;5.85;;;7.00;99.90;;;;;;4954786;28;20241;-67
2021/05/07 03:09:59;;;;;;;8.45;5.10;;;7.00;99.90;;;;;;4953183;28;20266;-68
2021/05/07 03:12:25;;;;;;;5.22;4.72;;;7.00;99.90;;;;;;4954327;28;20249;-67
2021/05/07 03:14:52;;;;;;;6.07;4.75;;;7.00;99.90;;;;;;4953382;28;20593;-66
2021/05/07 03:17:19;;;;;;;8.18;5.32;;;7.00;99.90;;;;;;4960600;28;20677;-66
2021/05/07 03:19:45;;;;;;;4.30;3.65;;;7.00;99.90;;;;;;4953511;29;20198;-67
2021/05/07 03:22:13;;;;;;;7.25;4.70;;;7.00;99.90;;;;;;4953812;29;20211;-67
2021/05/07 03:24:39;;;;;;;8.13;5.50;;;7.00;99.90;;;;;;4954080;28;20215;-67
2021/05/07 03:27:06;;;;;;;7.70;5.60;;;7.00;99.90;;;;;;4953978;28;20735;-66
2021/05/07 03:29:32;;;;;;;6.50;5.18;;;7.00;99.90;;;;;;4952956;29;20254;-66
2021/05/07 03:31:59;;;;;;;6.95;4.80;;;7.00;99.90;;;;;;4954567;29;20251;-67
2021/05/07 03:34:25;;;;;;;7.85;5.80;;;7.00;99.90;;;;;;4950187;29;20231;-67
2021/05/07 03:36:52;;;;;;;8.57;6.18;;;7.00;99.90;;;;;;4949860;28;20699;-67
2021/05/07 03:39:19;;;;;;;9.15;7.10;;;7.00;99.90;;;;;;4952531;29;20563;-66
2021/05/07 03:41:46;;;;;;;8.10;5.88;;;7.00;99.90;;;;;;4953950;28;20210;-67
2021/05/07 03:44:12;;;;;;;9.80;6.35;;;7.00;99.90;;;;;;4955073;28;20207;-66
2021/05/07 03:46:39;;;;;;;10.10;6.35;;;7.00;99.90;;;;;;4966865;28;20626;-67
2021/05/07 03:49:06;;;;;;;8.20;5.85;;;7.00;99.90;;;;;;4953422;29;20203;-67
2021/05/07 03:51:32;;;;;;;9.43;5.78;;;7.00;99.90;;;;;;4951794;29;20199;-67
2021/05/07 03:53:59;;;;;;;9.25;7.15;;;7.00;99.90;;;;;;4958036;28;20212;-66
2021/05/07 03:56:26;;;;;;;7.85;6.80;;;6.90;99.90;;;;;;4945543;29;20231;-67
2021/05/07 03:58:53;;;;;;;9.27;7.78;;;6.90;99.90;;;;;;4950179;28;20640;-67
2021/05/07 04:01:21;;;;;;;13.00;8.88;;;6.80;99.90;;;;;;4958611;28;20207;-66
2021/05/07 04:03:47;;;;;;;9.52;8.38;;;6.80;99.90;;;;;;4953447;28;20231;-67
2021/05/07 04:06:17;;;;;;;14.57;9.38;;;6.80;99.90;;;;;;4953289;28;20203;-67
2021/05/07 04:08:48;;;;;;;13.60;10.05;;;6.90;99.90;;;;;;4954383;28;20703;-67
2021/05/07 04:11:24;;;;;;;11.73;9.32;;;6.90;99.90;;;;;;4953468;29;20632;-67
2021/05/07 04:13:51;;;;;;;9.63;8.52;;;6.90;99.90;;;;;;4961076;28;20301;-66
2021/05/07 04:16:18;;;;;;;12.57;9.77;;;6.90;99.90;;;;;;4955657;29;20234;-67
2021/05/07 04:18:45;;;;;;;14.75;9.70;;;6.90;99.90;;;;;;4956552;28;20226;-66
2021/05/07 04:21:11;;;;;;;11.30;9.25;;;6.90;99.90;;;;;;4957019;29;20217;-66
2021/05/07 04:23:38;;;;;;;11.90;9.77;;;6.90;99.90;;;;;;4957868;28;20207;-66
2021/05/07 04:26:04;;;;;;;12.93;9.95;;;6.90;99.90;;;;;;4956740;28;20200;-67
2021/05/07 04:28:31;;;;;;;12.63;8.82;;;6.90;99.90;;;;;;4956838;28;20225;-67
2021/05/07 04:30:59;;;;;;;10.90;9.80;;;6.90;99.90;;;;;;4954157;29;20232;-67
2021/05/07 04:33:25;;;;;;;10.50;9.15;;;7.00;99.90;;;;;;4957310;28;20651;-67
2021/05/07 04:35:52;;;;;;;11.93;8.95;;;7.00;99.90;;;;;;4956915;29;20232;-67
2021/05/07 04:55:38;;;;;;;7.85;6.00;;;6.90;99.90;;;;;;4971519;28;20729;-83
2021/05/07 04:58:05;;;;;;;10.02;8.23;;;6.90;99.90;;;;;;4969476;28;20255;-82
2021/05/07 05:00:32;;;;;;;13.40;8.05;;;7.00;99.90;;;;;;4968507;28;20199;-81
2021/05/07 05:02:59;;;;;;;10.10;8.40;;;7.10;99.90;;;;;;4970842;28;20207;-82
2021/05/07 05:05:26;;;;;;;8.50;7.22;;;7.00;99.90;;;;;;4977841;28;20206;-81
2021/05/07 05:07:55;;;;;;;8.25;6.40;;;7.00;99.90;;;;;;4979525;28;20241;-82
2021/05/07 05:10:23;;;;;;;7.50;6.47;;;6.90;99.90;;;;;;4968645;28;20209;-81
2021/05/07 05:12:53;;;;;;;9.20;7.45;;;7.00;99.90;;;;;;4976012;28;20206;-82
2021/05/07 05:15:20;;;;;;;6.85;6.22;;;7.00;99.90;;;;;;4968052;28;20219;-81
2021/05/07 05:17:47;;;;;;;7.68;6.35;;;7.00;99.90;;;;;;4974405;28;20223;-81
2021/05/07 05:20:14;;;;;;;8.15;5.70;;;7.10;99.90;;;;;;4970264;28;20203;-83
2021/05/07 05:22:40;;;;;;;8.85;7.30;;;7.10;99.90;;;;;;4957664;29;20656;-82
2021/05/07 05:25:08;;;;;;;8.20;7.30;;;7.20;99.90;;;;;;4967788;28;20204;-82
2021/05/07 05:27:35;;;;;;;10.20;6.40;;;7.30;99.90;;;;;;4965834;28;20237;-81
2021/05/07 05:30:06;;;;;;;7.90;6.00;;;7.30;99.90;;;;;;4962549;28;20228;-82
2021/05/07 05:32:33;;;;;;;6.80;6.10;;;7.30;99.90;;;;;;4969220;28;20590;-81
2021/05/07 05:35:00;;;;;;;8.18;6.47;;;7.30;99.90;;;;;;4968620;28;20691;-82
2021/05/07 05:37:27;;;;;;;7.22;5.47;;;7.30;99.90;;;;;;4964440;28;20234;-82
2021/05/07 05:39:54;;;;;;;6.93;5.72;;;7.40;99.90;;;;;;4973638;28;20208;-82
2021/05/07 05:42:20;;;;;;;6.88;5.35;;;7.50;99.90;;;;;;4963656;28;20309;-80
2021/05/07 05:44:47;;;;;;;6.32;5.28;;;7.50;99.90;;;;;;4977479;28;20206;-81
2021/05/07 05:47:15;;;;;;;13.30;6.25;;;7.50;99.90;;;;;;4971587;28;20240;-82
2021/05/07 05:49:41;;;;;;;6.35;5.75;;;7.50;99.90;;;;;;4970231;28;20234;-83
2021/05/07 05:52:08;;;;;;;7.95;5.20;;;7.50;99.90;;;;;;4974662;28;20200;-82
2021/05/07 05:54:35;;;;;;;5.95;5.35;;;7.50;99.90;;;;;;4969336;28;20218;-83
2021/05/07 05:57:02;;;;;;;6.32;5.40;;;7.50;99.90;;;;;;4976240;28;20226;-82
2021/05/07 05:59:28;;;;;;;5.78;5.00;;;7.50;99.90;;;;;;4968150;28;20214;-81
2021/05/07 06:01:55;;;;;;;5.85;5.25;;;7.50;99.90;;;;;;4965410;28;20238;-80
2021/05/07 06:04:22;;;;;;;5.07;4.55;;;7.50;99.90;;;;;;4972850;28;20222;-81
2021/05/07 06:06:49;;;;;;;4.70;4.20;;;7.40;99.90;;;;;;4965361;28;20224;-81
2021/05/07 06:09:16;;;;;;;7.28;4.88;;;7.40;99.90;;;;;;4979664;28;20278;-81
2021/05/07 06:11:42;;;;;;;5.13;4.63;;;7.40;99.90;;;;;;4974633;28;20207;-81
2021/05/07 06:14:11;;;;;;;5.63;5.07;;;7.40;99.90;;;;;;4975550;28;20231;-80
2021/05/07 06:16:38;;;;;;;6.88;5.35;;;7.30;99.90;;;;;;4977290;28;20258;-81
2021/05/07 06:19:05;;;;;;;6.72;5.65;;;7.30;99.90;;;;;;4966770;29;20207;-81
2021/05/07 06:21:33;;;;;;;6.32;4.90;;;7.30;99.90;;;;;;4964895;28;20211;-81
2021/05/07 06:24:00;;;;;;;6.55;5.63;;;7.20;99.90;;;;;;4967535;28;20683;-81
2021/05/07 06:26:27;;;;;;;5.22;4.78;;;7.10;99.90;;;;;;4969375;28;20199;-81
2021/05/07 06:28:53;;;;;;;9.00;6.35;;;7.00;99.90;;;;;;4962020;28;20234;-80
2021/05/07 06:31:20;;;;;;;7.88;7.10;;;7.00;99.90;;;;;;4962342;29;20207;-82
2021/05/07 06:33:46;;;;;;;9.15;6.85;;;7.10;99.90;;;;;;4969728;28;20207;-80
2021/05/07 06:36:15;;;;;;;7.18;6.45;;;7.20;99.90;;;;;;4969140;28;20232;-79
2021/05/07 06:38:43;;;;;;;7.55;6.40;;;7.30;99.90;;;;;;4973256;28;20220;-79
2021/05/07 06:41:11;;;;;;;5.93;5.32;;;7.40;99.90;;;;;;4976705;28;20207;-79
2021/05/07 06:43:38;;;;;;;9.57;5.50;;;7.40;99.90;;;;;;4974321;28;20219;-81
2021/05/07 06:46:05;;;;;;;5.85;5.25;;;7.50;99.90;;;;;;4972050;28;20206;-81
2021/05/07 06:48:31;;;;;;;5.38;4.85;;;7.40;99.90;;;;;;4963303;28;20223;-80
2021/05/07 06:50:58;;;;;;;4.90;4.45;;;7.40;99.90;;;;;;4963048;28;20208;-78
2021/05/07 06:53:24;;;;;;;10.60;4.75;;;7.50;99.90;;;;;;4962665;29;20209;-80
2021/05/07 06:55:52;;;;;;;4.20;3.10;;;7.60;99.90;;;;;;4963351;28;20274;-80
2021/05/07 06:58:19;;;;;;;8.40;4.63;;;7.70;99.90;;;;;;4967947;28;20303;-79
2021/05/07 07:00:45;;;;;;;6.60;5.10;;;7.70;99.90;;;;;;4961740;29;20206;-79
2021/05/07 07:03:12;;;;;;;7.03;4.18;;;7.70;99.90;;;;;;4963445;28;20263;-80
2021/05/07 07:05:38;;;;;;;5.53;4.10;;;7.60;99.90;;;;;;4963143;29;20199;-81
2021/05/07 07:08:05;;;;;;;7.30;4.63;;;7.70;99.90;;;;;;4961369;29;20232;-81
2021/05/07 07:10:32;;;;;;;11.68;5.47;;;7.80;99.90;;;;;;4969163;28;20199;-79
2021/05/07 07:12:59;;;;;;;6.85;6.15;;;7.90;99.90;;;;;;4963447;28;20657;-81
2021/05/07 07:15:26;;;;;;;6.40;5.50;;;7.90;99.90;;;;;;4958900;29;20224;-81
2021/05/07 07:17:55;;;;;;;5.38;4.88;;;8.00;99.90;;;;;;4962129;28;20224;-81
2021/05/07 07:20:22;;;;;;;7.35;4.72;;;8.10;99.90;;;;;;4959821;29;20205;-80
2021/05/07 07:22:48;;;;;;;5.10;4.00;;;8.20;99.90;;;;;;4957662;29;20212;-81
2021/05/07 07:25:15;;;;;;;3.50;3.00;;;8.10;99.90;;;;;;4962579;29;20229;-81
2021/05/07 07:27:42;;;;;;;5.35;3.75;;;7.90;99.90;;;;;;4963557;28;20232;-82
2021/05/07 07:30:11;;;;;;;3.78;3.47;;;7.90;99.90;;;;;;4961480;29;20215;-80
2021/05/07 07:32:37;;;;;;;3.90;3.50;;;7.90;99.90;;;;;;4961544;28;20211;-80
2021/05/07 07:35:05;;;;;;;5.03;3.13;;;7.80;99.90;;;;;;4961465;29;20235;-81
2021/05/07 07:37:31;;;;;;;4.97;2.92;;;7.80;99.90;;;;;;4961308;28;20238;-80
2021/05/07 07:39:58;;;;;;;3.92;3.38;;;7.80;99.90;;;;;;4964806;28;20628;-79
2021/05/07 07:42:24;;;;;;;6.90;2.95;;;7.90;99.90;;;;;;4961359;29;20203;-78
2021/05/07 07:44:51;;;;;;;4.07;3.47;;;8.10;99.90;;;;;;4962248;28;20210;-81
2021/05/07 07:47:19;;;;;;;5.55;2.83;;;8.50;99.90;;;;;;4962115;28;20233;-81
2021/05/07 07:49:45;;;;;;;5.25;3.90;;;8.90;99.90;;;;;;4961786;28;20663;-82
2021/05/07 07:52:12;;;;;;;4.53;3.58;;;9.30;99.90;;;;;;4962847;28;20198;-82
2021/05/07 07:54:39;;;;;;;5.90;3.03;;;9.60;99.90;;;;;;4962540;28;20245;-79
2021/05/07 07:57:06;;;;;;;3.60;3.17;;;9.80;99.90;;;;;;4960195;28;20233;-81
2021/05/07 07:59:33;;;;;;;5.45;3.35;;;10.10;99.90;;;;;;4960104;28;20214;-81
2021/05/07 08:02:01;;;;;;;4.00;3.35;;;10.60;99.90;;;;;;4963327;28;20215;-81
2021/05/07 08:04:28;;;;;;;6.32;3.67;;;11.20;99.90;;;;;;4962806;29;20202;-81
2021/05/07 08:06:55;;;;;;;6.88;3.22;;;11.80;99.90;;;;;;4963131;28;20206;-82
2021/05/07 08:09:21;;;;;;;5.22;3.58;;;13.10;98.80;;;;;;4968084;28;20201;-81
2021/05/07 08:11:48;;;;;;;6.13;3.58;;;13.90;96.40;;;;;;4963417;29;21528;-81
2021/05/07 08:14:14;;;;;;;8.27;4.18;;;14.10;93.90;;;;;;4962760;28;20212;-82
2021/05/07 08:16:41;;;;;;;4.22;3.20;;;13.80;93.90;;;;;;4965850;28;20230;-81
2021/05/07 08:19:08;;;;;;;6.03;3.05;;;13.40;94.10;;;;;;4961673;29;20211;-81
2021/05/07 08:21:35;;;;;;;6.53;3.72;;;13.70;94.60;;;;;;4965197;28;20205;-82
2021/05/07 08:24:02;;;;;;;7.00;3.90;;;13.50;93.60;;;;;;4977114;28;20228;-82
2021/05/07 08:26:29;;;;;;;3.70;2.83;;;13.70;94.10;;;;;;4969837;28;20208;-82
2021/05/07 08:28:55;;;;;;;3.45;2.47;;;14.20;92.90;;;;;;4968813;28;20250;-82
2021/05/07 08:31:22;;;;;;;4.57;2.92;;;14.90;92.60;;;;;;4973347;28;20263;-82
2021/05/07 08:33:49;;;;;;;6.43;3.47;;;15.80;90.30;;;;;;4973217;28;20235;-81
2021/05/07 08:36:16;;;;;;;3.65;2.13;;;15.90;90.00;;;;;;4968508;28;20290;-82
2021/05/07 08:38:43;;;;;;;3.30;2.30;;;16.30;87.10;;;;;;4966875;28;20243;-82
2021/05/07 08:41:10;;;;;;;2.90;1.97;;;17.50;85.10;;;;;;4969021;28;20216;-81
2021/05/07 08:43:36;;;;;;;3.17;1.80;;;18.40;82.20;;;;;;4969643;28;20490;-82
2021/05/07 08:46:04;;;;;;;5.53;2.85;;;18.90;78.90;;;;;;4962068;28;20430;-81
2021/05/07 08:48:32;;;;;;;7.23;5.20;;;18.40;78.40;;;;;;4962420;28;20261;-83
2021/05/07 08:50:59;;;;;;;2.42;1.85;;;18.10;77.30;;;;;;4960577;29;20459;-81
2021/05/07 08:53:26;;;;;;;4.07;2.40;;;16.60;78.00;;;;;;4962608;29;20643;-81
2021/05/07 08:55:54;;;;;;;2.85;1.92;;;16.60;79.50;;;;;;4962611;28;20282;-81
2021/05/07 08:58:21;;;;;;;3.30;2.15;;;16.10;80.60;;;;;;4962984;28;20287;-81
2021/05/07 09:00:48;;;;;;;2.83;1.30;;;16.70;82.80;;;;;;4970785;28;20200;-80
2021/05/07 09:03:17;;;;;;;3.40;1.30;;;17.50;80.60;;;;;;4973365;29;20239;-80
2021/05/07 09:05:44;;;;;;;2.50;1.87;;;18.60;77.60;;;;;;4972356;28;20573;-79
2021/05/07 09:08:10;;;;;;;4.50;1.60;;;19.60;74.50;;;;;;4972704;28;20500;-81
2021/05/07 09:10:39;;;;;;;1.93;1.43;;;19.00;73.40;;;;;;4975090;28;21015;-81
2021/05/07 09:13:09;;;;;;;4.00;1.50;;;19.50;73.60;;;;;;4974597;28;20490;-80
2021/05/07 09:15:40;;;;;;;2.80;2.40;;;20.20;70.90;;;;;;4980003;28;20493;-80
2021/05/07 09:18:07;;;;;;;2.97;2.57;;;20.10;66.80;;;;;;4974853;28;20466;-81
2021/05/07 09:20:38;;;;;;;2.20;1.80;;;19.70;68.50;;;;;;4973463;29;20501;-80
2021/05/07 09:23:10;;;;;;;2.83;1.73;;;19.40;66.70;;;;;;4977078;28;20563;-81
2021/05/07 09:25:37;;;;;;;2.40;1.60;;;18.70;68.30;;;;;;4975077;29;20483;-80
2021/05/07 09:28:10;;;;;;;1.90;1.40;;;19.00;70.50;;;;;;4975546;28;20478;-81
2021/05/07 09:30:37;;;;;;;5.97;3.53;;;19.50;68.20;;;;;;4975674;28;20443;-81
2021/05/07 09:33:09;;;;;;;2.73;1.63;;;19.90;69.00;;;;;;4977383;28;20462;-81
2021/05/07 09:35:37;;;;;;;5.30;2.00;;;19.30;68.20;;;;;;4971023;28;20477;-82
2021/05/07 09:38:05;;;;;;;4.83;1.50;;;18.40;68.80;;;;;;4975502;28;20486;-82
2021/05/07 09:40:32;;;;;;;2.33;1.57;;;18.40;68.40;;;;;;4967034;29;21009;-81
2021/05/07 09:43:08;;;;;;;2.80;2.00;;;18.40;69.20;;;;;;4966200;28;20551;-80
2021/05/07 09:45:35;;;;;;;5.90;2.23;;;18.80;70.30;;;;;;4963785;28;20509;-81
2021/05/07 09:48:02;;;;;;;4.40;2.03;;;18.70;68.10;;;;;;4970507;28;20485;-81
2021/05/07 09:50:39;;;;;;;1.77;0.90;;;18.40;65.30;;;;;;4968991;28;20452;-81
2021/05/07 09:53:11;;;;;;;3.90;1.55;;;18.00;63.40;;;;;;4971043;28;20277;-81
2021/05/07 09:55:38;;;;;;;2.13;1.38;;;17.30;64.70;;;;;;4971315;28;20259;-80
2021/05/07 09:58:05;;;;;;;3.20;1.50;;;16.70;67.40;;;;;;4972560;28;20286;-81
2021/05/07 10:00:32;;;;;;;1.75;1.30;;;16.20;69.60;;;;;;4970264;28;20234;-80
2021/05/07 10:03:00;;;;;;;1.90;1.25;;;15.40;70.20;;;;;;4972661;28;20206;-80
2021/05/07 10:05:27;;;;;;;2.28;1.55;;;14.90;69.80;;;;;;4971696;28;20241;-80
2021/05/07 10:07:55;;;;;;;4.40;1.40;;;14.20;73.30;;;;;;4974547;28;20313;-81
2021/05/07 10:10:27;;;;;;;1.70;1.08;;;14.30;75.50;;;;;;4980821;28;20209;-82
2021/05/07 10:12:57;;;;;;;2.65;1.30;;;15.30;72.80;;;;;;4979341;28;20211;-81
2021/05/07 10:15:31;;;;;;;4.47;2.08;;;16.50;70.10;;;;;;4975650;28;20233;-81
2021/05/07 10:17:59;;;;;;;5.63;1.85;;;16.60;67.80;;;;;;4966652;28;20270;-81
2021/05/07 10:20:30;;;;;;;3.00;1.75;;;15.80;68.90;;;;;;4978519;28;20206;-82
2021/05/07 10:22:57;;;;;;;5.65;1.70;;;15.10;75.90;;;;;;4982087;28;20195;-82
2021/05/07 10:25:25;;;;;;;3.78;1.45;;;14.80;81.30;;;;;;4974550;28;20218;-80
2021/05/07 10:27:53;;;;;;;2.95;1.70;;;14.60;83.40;;;;;;4972472;28;20227;-80
2021/05/07 10:30:24;;;;;;;4.25;1.77;;;14.20;85.00;;;;;;4964967;28;20467;-80
2021/05/07 10:33:01;;;;;;;4.95;2.25;;;13.90;86.60;;;;;;4964151;28;20209;-80
2021/05/07 10:35:37;;;;;;;3.42;1.98;;;13.20;90.00;;;;;;4965654;28;20254;-82
2021/05/07 10:38:08;;;;;;;3.05;1.90;;;12.30;94.50;;;;;;4960038;29;20321;-81
2021/05/07 10:40:35;;;;;;;2.05;1.80;;;11.50;98.40;;;;;;4968084;28;20199;-80
2021/05/07 10:43:02;;;;;;;3.00;2.15;;;10.90;99.90;;;;;;4964038;28;20241;-81
2021/05/07 10:45:47;;;;;;;2.80;2.10;;;10.60;99.90;;;;;;4969822;28;20195;-82
2021/05/07 10:48:20;;;;;;;3.22;1.90;;;10.40;99.90;;;;;;4957228;29;20286;-82
2021/05/07 10:50:49;;;;;;;2.47;2.15;;;10.40;99.90;;;;;;4964547;28;20217;-81
2021/05/07 10:53:29;;;;;;;2.15;1.80;;;10.60;99.90;;;;;;4964342;29;20302;-82
2021/05/07 10:55:56;;;;;;;3.95;1.85;;;10.90;99.90;;;;;;4961093;29;20635;-82
2021/05/07 10:58:34;;;;;;;2.15;1.70;;;11.10;99.90;;;;;;4964209;28;20236;-80
2021/05/07 11:01:01;;;;;;;3.70;2.10;;;11.80;99.90;;;;;;4964141;29;20215;-80
2021/05/07 11:03:29;;;;;;;4.53;1.70;;;12.60;99.90;;;;;;4965024;29;20298;-81
2021/05/07 11:05:56;;;;;;;4.53;1.90;;;13.10;99.90;;;;;;4960623;29;20212;-81
2021/05/07 11:08:32;;;;;;;4.35;2.03;;;13.10;94.40;;;;;;4965979;28;20242;-81
2021/05/07 11:10:59;;;;;;;2.03;1.85;;;13.10;95.50;;;;;;4960216;29;20203;-81
2021/05/07 11:13:26;;;;;;;5.22;2.47;;;13.10;94.80;;;;;;4960877;29;20204;-81
2021/05/07 11:15:56;;;;;;;3.40;2.40;;;13.20;94.00;;;;;;4966196;28;20603;-81
2021/05/07 11:18:29;;;;;;;5.80;2.40;;;13.40;93.60;;;;;;4956648;29;20241;-82
2021/05/07 11:20:56;;;;;;;2.42;1.50;;;13.40;92.20;;;;;;4951863;29;20303;-83
2021/05/07 11:23:30;;;;;;;3.50;1.85;;;13.60;91.00;;;;;;4963366;28;20209;-82
2021/05/07 11:26:05;;;;;;;2.95;1.55;;;14.00;90.40;;;;;;4962976;28;20257;-82
2021/05/07 11:28:40;;;;;;;3.45;2.13;;;14.40;88.10;;;;;;4963060;28;20224;-81
2021/05/07 11:31:07;;;;;;;4.60;2.55;;;14.40;88.00;;;;;;4961042;29;20218;-81
2021/05/07 11:33:35;;;;;;;2.10;1.58;;;14.20;87.80;;;;;;4963565;29;20210;-81
2021/05/07 11:36:06;;;;;;;3.10;1.33;;;13.80;88.20;;;;;;4967897;28;20235;-81
2021/05/07 11:38:33;;;;;;;3.47;1.70;;;13.20;87.20;;;;;;4955995;29;20458;-81
2021/05/07 11:41:00;;;;;;;3.28;1.55;;;13.10;87.50;;;;;;4963307;29;20209;-82
2021/05/07 11:43:28;;;;;;;2.85;2.10;;;12.50;90.40;;;;;;4965934;28;20206;-81
2021/05/07 11:46:06;;;;;;;2.42;1.50;;;12.00;93.20;;;;;;4967439;28;20203;-82
2021/05/07 11:48:33;;;;;;;2.25;1.80;;;11.60;95.80;;;;;;4964491;28;20281;-81
2021/05/07 11:51:05;;;;;;;3.38;1.20;;;11.40;96.20;;;;;;4977014;28;20198;-81
2021/05/07 11:53:33;;;;;;;1.90;1.30;;;11.20;95.60;;;;;;4976317;28;20211;-80
2021/05/07 11:55:59;;;;;;;2.13;1.45;;;11.20;97.60;;;;;;4978082;28;20215;-80
2021/05/07 11:58:34;;;;;;;2.65;1.58;;;11.30;96.10;;;;;;4976111;28;20278;-82
2021/05/07 12:01:01;;;;;;;1.95;1.45;;;11.40;96.50;;;;;;4976520;28;20269;-81
2021/05/07 12:03:38;;;;;;;3.42;1.98;;;11.50;95.90;;;;;;4974454;28;20213;-82
2021/05/07 12:06:21;;;;;;;2.65;1.60;;;11.70;96.10;;;;;;4971626;29;20214;-80
2021/05/07 12:08:48;;;;;;;2.15;1.67;;;12.00;95.80;;;;;;4966529;28;20234;-81
2021/05/07 12:11:16;;;;;;;3.65;2.63;;;12.50;95.70;;;;;;4965068;29;20219;-80
2021/05/07 12:13:44;;;;;;;4.15;1.70;;;12.70;93.20;;;;;;4971420;28;20205;-81
2021/05/07 12:16:11;;;;;;;4.10;1.55;;;13.00;92.30;;;;;;4963182;28;20514;-81
2021/05/07 12:18:39;;;;;;;2.22;2.03;;;13.50;91.70;;;;;;4965727;28;20226;-80
2021/05/07 12:21:09;;;;;;;4.82;2.08;;;13.80;89.60;;;;;;4964607;29;20220;-82
2021/05/07 12:23:44;;;;;;;3.63;2.30;;;14.00;88.70;;;;;;4964611;28;20211;-80
2021/05/07 12:26:11;;;;;;;5.13;1.90;;;14.10;89.60;;;;;;4965977;29;20273;-81
2021/05/07 12:28:38;;;;;;;4.03;1.58;;;14.10;89.60;;;;;;4966639;28;20236;-81
2021/05/07 12:31:06;;;;;;;3.65;2.88;;;14.00;87.30;;;;;;4975948;28;20189;-82
2021/05/07 12:33:35;;;;;;;2.13;1.73;;;13.80;85.80;;;;;;4973838;28;20250;-82
2021/05/07 12:36:03;;;;;;;7.88;2.10;;;13.50;85.80;;;;;;4967711;28;20244;-81
2021/05/07 12:38:34;;;;;;;2.17;1.80;;;13.50;86.10;;;;;;4964896;28;20233;-81
2021/05/07 12:41:03;;;;;;;5.15;1.70;;;13.10;84.50;;;;;;4968801;28;20268;-81
2021/05/07 12:43:36;;;;;;;3.75;1.40;;;13.00;84.90;;;;;;4970754;28;20535;-81
2021/05/07 12:46:04;;;;;;;3.90;1.40;;;12.70;82.90;;;;;;4967749;28;20288;-82
2021/05/07 12:48:31;;;;;;;2.05;1.08;;;12.70;83.70;;;;;;4966741;28;20327;-81
2021/05/07 12:51:01;;;;;;;1.88;1.23;;;12.70;82.20;;;;;;4966432;28;20214;-82
2021/05/07 12:53:28;;;;;;;2.45;1.20;;;12.90;82.60;;;;;;4967649;29;20256;-80
2021/05/07 12:55:54;;;;;;;4.13;1.63;;;13.00;80.30;;;;;;4966602;28;20678;-81
2021/05/07 12:58:22;;;;;;;4.85;1.60;;;13.30;80.70;;;;;;4966152;29;20647;-82
2021/05/07 13:00:49;;;;;;;3.92;2.65;;;13.50;80.80;;;;;;4968126;28;20269;-81
2021/05/07 13:03:17;;;;;;;1.98;1.63;;;13.50;82.20;;;;;;4961943;28;20205;-82
2021/05/07 13:05:43;;;;;;;2.28;1.35;;;13.20;83.00;;;;;;4959966;29;20213;-80
2021/05/07 13:08:11;;;;;;;4.75;2.00;;;12.90;84.70;;;;;;4966367;28;20249;-81
2021/05/07 13:10:38;;;;;;;3.92;1.80;;;12.90;85.80;;;;;;4960934;28;20670;-80
2021/05/07 13:13:05;;;;;;;6.35;2.00;;;12.80;86.40;;;;;;4955755;29;20293;-82